sensor_id;sensor_type;location;lat;lon;timestamp;pressure;altitude;pressure_sealevel;temperature;humidity
58775;BME280;44545;47.480;19.024;2023-12-07T04:23:35;99990.62;;;0.32;100.00
58775;BME280;44545;47.480;19.024;2023-12-07T04:26:37;99994.69;;;0.30;100.00
58775;BME280;44545;47.480;19.024;2023-12-07T04:29:39;99991.88;;;0.27;100.00
58775;BME280;44545;47.480;19.024;2023-12-07T04:32:42;99998.19;;;0.31;100.00
58775;BME280;44545;47.480;19.024;2023-12-07T04:35:44;100001.88;;;0.24;100.00
58775;BME280;44545;47.480;19.024;2023-12-07T04:38:47;100004.69;;;0.27;100.00
58775;BME280;44545;47.480;19.024;2023-12-07T04:41:49;100009.66;;;0.15;100.00
58775;BME280;44545;47.480;19.024;2023-12-07T04:44:51;100011.72;;;0.19;100.00
58775;BME280;44545;47.480;19.024;2023-12-07T04:47:53;100010.34;;;0.23;100.00
58775;BME280;44545;47.480;19.024;2023-12-07T04:50:56;100013.78;;;0.24;100.00
58775;BME280;44545;47.480;19.024;2023-12-07T04:53:58;100016.72;;;0.18;100.00
58775;BME280;44545;47.480;19.024;2023-12-07T04:57:17;100018.09;;;0.33;100.00
58775;BME280;44545;47.480;19.024;2023-12-07T05:00:19;100023.31;;;0.35;100.00
58775;BME280;44545;47.480;19.024;2023-12-07T05:03:22;100027.78;;;0.27;100.00
58775;BME280;44545;47.480;19.024;2023-12-07T05:06:24;100023.78;;;0.20;100.00
58775;BME280;44545;47.480;19.024;2023-12-07T05:09:27;100025.56;;;0.21;100.00
58775;BME280;44545;47.480;19.024;2023-12-07T05:12:33;100025.38;;;0.29;100.00
58775;BME280;44545;47.480;19.024;2023-12-07T05:15:35;100028.41;;;0.25;100.00
58775;BME280;44545;47.480;19.024;2023-12-07T05:18:37;100032.63;;;0.24;100.00
58775;BME280;44545;47.480;19.024;2023-12-07T05:21:40;100029.19;;;0.24;100.00
58775;BME280;44545;47.480;19.024;2023-12-07T05:24:42;100039.84;;;0.28;100.00
58775;BME280;44545;47.480;19.024;2023-12-07T05:27:45;100042.62;;;0.21;100.00
58775;BME280;44545;47.480;19.024;2023-12-07T05:30:47;100045.09;;;0.30;100.00
58775;BME280;44545;47.480;19.024;2023-12-07T05:33:50;100051.06;;;0.20;100.00
58775;BME280;44545;47.480;19.024;2023-12-07T05:36:52;100049.19;;;0.28;100.00
58775;BME280;44545;47.480;19.024;2023-12-07T05:39:55;100052.38;;;0.25;100.00
58775;BME280;44545;47.480;19.024;2023-12-07T05:42:57;100051.63;;;0.26;100.00
58775;BME280;44545;47.480;19.024;2023-12-07T05:46:00;100061.75;;;0.25;100.00
58775;BME280;44545;47.480;19.024;2023-12-07T05:49:02;100063.00;;;0.19;100.00
58775;BME280;44545;47.480;19.024;2023-12-07T05:52:05;100065.34;;;0.27;100.00
58775;BME280;44545;47.480;19.024;2023-12-07T05:55:07;100071.78;;;0.32;100.00
58775;BME280;44545;47.480;19.024;2023-12-07T05:58:10;100067.69;;;0.34;100.00
58775;BME280;44545;47.480;19.024;2023-12-07T06:01:17;100077.66;;;0.50;100.00
58775;BME280;44545;47.480;19.024;2023-12-07T06:04:19;100073.41;;;0.50;100.00
58775;BME280;44545;47.480;19.024;2023-12-07T06:07:22;100072.47;;;0.39;100.00
58775;BME280;44545;47.480;19.024;2023-12-07T06:10:24;100079.38;;;0.40;100.00
58775;BME280;44545;47.480;19.024;2023-12-07T06:13:27;100082.25;;;0.43;100.00
58775;BME280;44545;47.480;19.024;2023-12-07T06:16:29;100078.69;;;0.52;100.00
58775;BME280;44545;47.480;19.024;2023-12-07T06:19:32;100086.22;;;0.50;100.00
58775;BME280;44545;47.480;19.024;2023-12-07T06:22:34;100096.03;;;0.54;100.00
58775;BME280;44545;47.480;19.024;2023-12-07T06:25:36;100101.84;;;0.43;100.00
58775;BME280;44545;47.480;19.024;2023-12-07T06:28:39;100106.22;;;0.44;100.00
58775;BME280;44545;47.480;19.024;2023-12-07T06:31:45;100111.03;;;0.31;100.00
58775;BME280;44545;47.480;19.024;2023-12-07T06:34:47;100107.91;;;0.43;100.00
58775;BME280;44545;47.480;19.024;2023-12-07T06:37:50;100116.28;;;0.51;100.00
58775;BME280;44545;47.480;19.024;2023-12-07T06:40:52;100108.63;;;0.61;100.00
58775;BME280;44545;47.480;19.024;2023-12-07T06:43:54;100122.31;;;0.52;100.00
58775;BME280;44545;47.480;19.024;2023-12-07T06:46:59;100122.25;;;0.71;100.00
58775;BME280;44545;47.480;19.024;2023-12-07T06:50:06;100126.28;;;0.48;100.00
58775;BME280;44545;47.480;19.024;2023-12-07T06:53:14;100125.44;;;0.39;100.00
58775;BME280;44545;47.480;19.024;2023-12-07T06:56:16;100133.59;;;0.35;100.00
58775;BME280;44545;47.480;19.024;2023-12-07T06:59:19;100137.22;;;0.37;100.00
58775;BME280;44545;47.480;19.024;2023-12-07T07:02:22;100147.94;;;0.33;100.00
58775;BME280;44545;47.480;19.024;2023-12-07T07:05:25;100142.09;;;0.63;100.00
58775;BME280;44545;47.480;19.024;2023-12-07T07:08:27;100141.78;;;0.69;100.00
58775;BME280;44545;47.480;19.024;2023-12-07T07:11:33;100140.50;;;0.74;100.00
58775;BME280;44545;47.480;19.024;2023-12-07T07:14:36;100143.50;;;0.89;100.00
58775;BME280;44545;47.480;19.024;2023-12-07T07:17:39;100151.28;;;0.51;100.00
58775;BME280;44545;47.480;19.024;2023-12-07T07:20:41;100147.12;;;0.42;100.00
58775;BME280;44545;47.480;19.024;2023-12-07T07:23:44;100149.00;;;0.83;100.00
58775;BME280;44545;47.480;19.024;2023-12-07T07:26:46;100143.59;;;0.80;100.00
58775;BME280;44545;47.480;19.024;2023-12-07T07:29:49;100151.19;;;0.59;100.00
58775;BME280;44545;47.480;19.024;2023-12-07T07:32:51;100150.31;;;0.40;100.00
58775;BME280;44545;47.480;19.024;2023-12-07T07:35:54;100159.25;;;0.35;100.00
58775;BME280;44545;47.480;19.024;2023-12-07T07:38:59;100159.69;;;0.58;100.00
58775;BME280;44545;47.480;19.024;2023-12-07T07:42:02;100161.03;;;1.03;100.00
58775;BME280;44545;47.480;19.024;2023-12-07T07:45:05;100170.47;;;0.64;100.00
58775;BME280;44545;47.480;19.024;2023-12-07T07:48:08;100172.41;;;0.67;100.00
58775;BME280;44545;47.480;19.024;2023-12-07T07:51:10;100165.53;;;0.76;100.00
58775;BME280;44545;47.480;19.024;2023-12-07T07:54:13;100169.16;;;0.40;100.00
58775;BME280;44545;47.480;19.024;2023-12-07T07:57:15;100180.13;;;0.48;100.00
58775;BME280;44545;47.480;19.024;2023-12-07T08:00:17;100178.97;;;0.93;100.00
58775;BME280;44545;47.480;19.024;2023-12-07T08:03:21;100178.66;;;0.60;100.00
58775;BME280;44545;47.480;19.024;2023-12-07T08:06:23;100183.72;;;0.69;100.00
58775;BME280;44545;47.480;19.024;2023-12-07T08:09:26;100182.53;;;0.65;100.00
58775;BME280;44545;47.480;19.024;2023-12-07T08:12:28;100188.69;;;0.86;100.00
58775;BME280;44545;47.480;19.024;2023-12-07T08:15:31;100186.19;;;0.78;100.00
58775;BME280;44545;47.480;19.024;2023-12-07T08:18:34;100178.12;;;1.02;100.00
58775;BME280;44545;47.480;19.024;2023-12-07T08:21:38;100183.56;;;0.86;100.00
58775;BME280;44545;47.480;19.024;2023-12-07T08:24:41;100191.94;;;0.94;100.00
58775;BME280;44545;47.480;19.024;2023-12-07T08:27:43;100189.59;;;0.68;100.00
58775;BME280;44545;47.480;19.024;2023-12-07T08:30:48;100186.25;;;0.88;100.00
58775;BME280;44545;47.480;19.024;2023-12-07T08:33:51;100185.81;;;1.02;100.00
58775;BME280;44545;47.480;19.024;2023-12-07T08:36:53;100183.19;;;0.92;100.00
58775;BME280;44545;47.480;19.024;2023-12-07T08:39:56;100184.19;;;0.84;100.00
58775;BME280;44545;47.480;19.024;2023-12-07T08:42:58;100190.69;;;0.99;100.00
58775;BME280;44545;47.480;19.024;2023-12-07T08:46:01;100182.41;;;0.93;100.00
58775;BME280;44545;47.480;19.024;2023-12-07T08:49:03;100181.41;;;1.20;100.00
58775;BME280;44545;47.480;19.024;2023-12-07T08:52:06;100185.91;;;1.23;100.00
58775;BME280;44545;47.480;19.024;2023-12-07T08:55:28;100184.84;;;1.21;100.00
58775;BME280;44545;47.480;19.024;2023-12-07T08:58:32;100189.28;;;1.32;100.00
58775;BME280;44545;47.480;19.024;2023-12-07T09:01:35;100185.03;;;1.33;100.00
58775;BME280;44545;47.480;19.024;2023-12-07T09:04:38;100187.59;;;1.33;100.00
58775;BME280;44545;47.480;19.024;2023-12-07T09:07:41;100186.78;;;1.23;100.00
58775;BME280;44545;47.480;19.024;2023-12-07T09:10:45;100188.22;;;1.20;100.00
58775;BME280;44545;47.480;19.024;2023-12-07T09:13:48;100189.72;;;1.18;100.00
58775;BME280;44545;47.480;19.024;2023-12-07T09:16:51;100192.41;;;1.48;100.00
58775;BME280;44545;47.480;19.024;2023-12-07T09:19:53;100197.28;;;1.45;100.00
58775;BME280;44545;47.480;19.024;2023-12-07T09:22:56;100187.41;;;1.50;100.00
58775;BME280;44545;47.480;19.024;2023-12-07T09:25:59;100191.09;;;2.03;100.00
58775;BME280;44545;47.480;19.024;2023-12-07T09:29:02;100189.16;;;2.21;100.00
58775;BME280;44545;47.480;19.024;2023-12-07T09:32:06;100189.81;;;2.39;100.00
58775;BME280;44545;47.480;19.024;2023-12-07T09:35:10;100187.09;;;2.07;100.00
58775;BME280;44545;47.480;19.024;2023-12-07T09:38:22;100189.16;;;1.90;100.00
58775;BME280;44545;47.480;19.024;2023-12-07T09:41:26;100197.91;;;1.92;100.00
58775;BME280;44545;47.480;19.024;2023-12-07T09:44:29;100181.97;;;2.17;100.00
58775;BME280;44545;47.480;19.024;2023-12-07T09:47:34;100184.53;;;2.17;100.00
58775;BME280;44545;47.480;19.024;2023-12-07T09:50:40;100185.31;;;2.26;100.00
58775;BME280;44545;47.480;19.024;2023-12-07T09:53:45;100187.88;;;1.95;100.00
58775;BME280;44545;47.480;19.024;2023-12-07T09:56:47;100182.75;;;2.16;100.00
58775;BME280;44545;47.480;19.024;2023-12-07T09:59:50;100175.66;;;1.93;100.00
58775;BME280;44545;47.480;19.024;2023-12-07T10:02:52;100183.00;;;2.09;100.00
58775;BME280;44545;47.480;19.024;2023-12-07T10:05:59;100185.69;;;2.10;100.00
58775;BME280;44545;47.480;19.024;2023-12-07T10:09:05;100188.28;;;2.31;100.00
58775;BME280;44545;47.480;19.024;2023-12-07T10:12:16;100189.81;;;2.19;100.00
58775;BME280;44545;47.480;19.024;2023-12-07T10:15:19;100184.38;;;2.56;100.00
58775;BME280;44545;47.480;19.024;2023-12-07T10:18:23;100178.59;;;2.59;100.00
58775;BME280;44545;47.480;19.024;2023-12-07T10:21:32;100182.47;;;2.33;100.00
58775;BME280;44545;47.480;19.024;2023-12-07T10:24:35;100186.59;;;2.31;100.00
58775;BME280;44545;47.480;19.024;2023-12-07T10:27:41;100187.88;;;2.26;100.00
58775;BME280;44545;47.480;19.024;2023-12-07T10:30:45;100189.41;;;2.45;100.00
58775;BME280;44545;47.480;19.024;2023-12-07T10:33:48;100191.09;;;2.34;100.00
58775;BME280;44545;47.480;19.024;2023-12-07T10:36:51;100179.63;;;2.51;100.00
58775;BME280;44545;47.480;19.024;2023-12-07T10:39:55;100184.78;;;2.51;100.00
58775;BME280;44545;47.480;19.024;2023-12-07T10:42:58;100180.66;;;2.32;100.00
58775;BME280;44545;47.480;19.024;2023-12-07T10:46:00;100181.22;;;2.81;100.00
58775;BME280;44545;47.480;19.024;2023-12-07T10:49:04;100187.16;;;2.80;100.00
58775;BME280;44545;47.480;19.024;2023-12-07T10:52:20;100179.56;;;2.81;100.00
58775;BME280;44545;47.480;19.024;2023-12-07T10:55:28;100186.78;;;2.75;100.00
58775;BME280;44545;47.480;19.024;2023-12-07T10:58:34;100185.13;;;2.55;100.00
58775;BME280;44545;47.480;19.024;2023-12-07T11:01:41;100195.84;;;2.39;100.00
58775;BME280;44545;47.480;19.024;2023-12-07T11:04:45;100193.78;;;2.05;100.00
58775;BME280;44545;47.480;19.024;2023-12-07T11:08:04;100197.13;;;2.34;100.00
58775;BME280;44545;47.480;19.024;2023-12-07T11:14:23;100198.69;;;2.12;100.00
58775;BME280;44545;47.480;19.024;2023-12-07T11:17:26;100201.50;;;2.25;100.00
58775;BME280;44545;47.480;19.024;2023-12-07T11:20:47;100207.56;;;2.05;100.00
58775;BME280;44545;47.480;19.024;2023-12-07T11:23:50;100203.69;;;2.00;100.00
58775;BME280;44545;47.480;19.024;2023-12-07T11:26:53;100213.59;;;2.06;100.00
58775;BME280;44545;47.480;19.024;2023-12-07T11:29:58;100202.13;;;1.92;100.00
58775;BME280;44545;47.480;19.024;2023-12-07T11:33:06;100202.75;;;1.79;100.00
58775;BME280;44545;47.480;19.024;2023-12-07T11:36:09;100204.34;;;1.98;100.00
58775;BME280;44545;47.480;19.024;2023-12-07T11:39:16;100200.47;;;1.92;100.00
58775;BME280;44545;47.480;19.024;2023-12-07T11:42:30;100199.84;;;2.15;100.00
58775;BME280;44545;47.480;19.024;2023-12-07T11:45:47;100194.94;;;1.98;100.00
58775;BME280;44545;47.480;19.024;2023-12-07T11:48:51;100198.69;;;2.12;100.00
58775;BME280;44545;47.480;19.024;2023-12-07T11:51:54;100199.97;;;2.17;100.00
58775;BME280;44545;47.480;19.024;2023-12-07T11:54:56;100197.34;;;2.58;100.00
58775;BME280;44545;47.480;19.024;2023-12-07T11:57:59;100197.91;;;2.44;100.00
58775;BME280;44545;47.480;19.024;2023-12-07T12:01:02;100194.03;;;2.49;100.00
58775;BME280;44545;47.480;19.024;2023-12-07T12:04:05;100202.66;;;2.29;100.00
58775;BME280;44545;47.480;19.024;2023-12-07T12:07:08;100203.78;;;2.53;100.00
58775;BME280;44545;47.480;19.024;2023-12-07T12:10:10;100209.50;;;2.38;100.00
58775;BME280;44545;47.480;19.024;2023-12-07T12:13:15;100212.56;;;2.14;100.00
58775;BME280;44545;47.480;19.024;2023-12-07T12:16:18;100218.19;;;1.89;100.00
58775;BME280;44545;47.480;19.024;2023-12-07T12:19:22;100216.03;;;1.94;100.00
58775;BME280;44545;47.480;19.024;2023-12-07T12:22:36;100215.91;;;1.92;100.00
58775;BME280;44545;47.480;19.024;2023-12-07T12:25:39;100219.22;;;1.91;100.00
58775;BME280;44545;47.480;19.024;2023-12-07T12:28:43;100217.44;;;1.90;100.00
58775;BME280;44545;47.480;19.024;2023-12-07T12:31:46;100222.59;;;2.11;100.00
58775;BME280;44545;47.480;19.024;2023-12-07T12:34:52;100224.41;;;2.12;100.00
58775;BME280;44545;47.480;19.024;2023-12-07T12:37:55;100221.19;;;2.25;100.00
58775;BME280;44545;47.480;19.024;2023-12-07T12:40:58;100232.12;;;2.22;100.00
58775;BME280;44545;47.480;19.024;2023-12-07T12:44:00;100226.22;;;2.13;100.00
58775;BME280;44545;47.480;19.024;2023-12-07T12:47:06;100236.50;;;2.23;100.00
58775;BME280;44545;47.480;19.024;2023-12-07T12:50:32;100235.72;;;2.14;100.00
58775;BME280;44545;47.480;19.024;2023-12-07T12:53:35;100235.94;;;1.97;100.00
58775;BME280;44545;47.480;19.024;2023-12-07T12:56:43;100238.53;;;2.07;100.00
58775;BME280;44545;47.480;19.024;2023-12-07T12:59:47;100248.06;;;2.08;100.00
58775;BME280;44545;47.480;19.024;2023-12-07T13:02:50;100241.75;;;2.14;100.00
58775;BME280;44545;47.480;19.024;2023-12-07T13:05:53;100246.78;;;2.13;100.00
58775;BME280;44545;47.480;19.024;2023-12-07T13:08:55;100241.75;;;2.04;100.00
58775;BME280;44545;47.480;19.024;2023-12-07T13:11:59;100244.72;;;2.09;100.00
58775;BME280;44545;47.480;19.024;2023-12-07T13:15:06;100248.09;;;2.18;100.00
58775;BME280;44545;47.480;19.024;2023-12-07T13:18:09;100244.72;;;2.19;100.00
58775;BME280;44545;47.480;19.024;2023-12-07T13:21:11;100255.47;;;1.94;100.00
58775;BME280;44545;47.480;19.024;2023-12-07T13:24:15;100245.22;;;2.05;100.00
58775;BME280;44545;47.480;19.024;2023-12-07T13:27:17;100254.13;;;2.08;100.00
58775;BME280;44545;47.480;19.024;2023-12-07T13:30:20;100256.28;;;2.14;100.00
58775;BME280;44545;47.480;19.024;2023-12-07T13:33:22;100254.53;;;2.23;100.00
58775;BME280;44545;47.480;19.024;2023-12-07T13:36:31;100254.97;;;1.88;100.00
58775;BME280;44545;47.480;19.024;2023-12-07T13:39:35;100265.97;;;1.77;100.00
58775;BME280;44545;47.480;19.024;2023-12-07T13:42:38;100265.88;;;1.86;100.00
58775;BME280;44545;47.480;19.024;2023-12-07T13:45:41;100270.66;;;1.91;100.00
58775;BME280;44545;47.480;19.024;2023-12-07T13:48:44;100274.78;;;2.00;100.00
58775;BME280;44545;47.480;19.024;2023-12-07T13:51:47;100277.81;;;1.75;100.00
58775;BME280;44545;47.480;19.024;2023-12-07T13:54:49;100274.22;;;1.73;100.00
58775;BME280;44545;47.480;19.024;2023-12-07T13:57:55;100268.66;;;1.68;100.00
58775;BME280;44545;47.480;19.024;2023-12-07T14:00:59;100276.25;;;1.77;100.00
58775;BME280;44545;47.480;19.024;2023-12-07T14:04:03;100283.22;;;1.78;100.00
58775;BME280;44545;47.480;19.024;2023-12-07T14:07:11;100282.28;;;1.67;100.00
58775;BME280;44545;47.480;19.024;2023-12-07T14:10:14;100288.34;;;1.68;100.00
58775;BME280;44545;47.480;19.024;2023-12-07T14:13:17;100284.03;;;1.58;100.00
58775;BME280;44545;47.480;19.024;2023-12-07T14:16:20;100287.31;;;1.76;100.00
58775;BME280;44545;47.480;19.024;2023-12-07T14:19:43;100287.03;;;1.63;100.00
58775;BME280;44545;47.480;19.024;2023-12-07T14:22:46;100290.12;;;1.69;100.00
58775;BME280;44545;47.480;19.024;2023-12-07T14:25:49;100298.16;;;1.53;100.00
58775;BME280;44545;47.480;19.024;2023-12-07T14:28:54;100304.75;;;1.60;100.00
58775;BME280;44545;47.480;19.024;2023-12-07T14:31:56;100311.91;;;1.54;100.00
58775;BME280;44545;47.480;19.024;2023-12-07T14:34:59;100318.53;;;1.41;100.00
58775;BME280;44545;47.480;19.024;2023-12-07T14:38:01;100318.53;;;1.41;100.00
58775;BME280;44545;47.480;19.024;2023-12-07T14:41:04;100329.56;;;1.40;100.00
58775;BME280;44545;47.480;19.024;2023-12-07T14:44:07;100325.59;;;1.44;100.00
58775;BME280;44545;47.480;19.024;2023-12-07T14:47:10;100340.91;;;1.42;100.00
58775;BME280;44545;47.480;19.024;2023-12-07T14:50:12;100335.06;;;1.35;100.00
58775;BME280;44545;47.480;19.024;2023-12-07T14:53:15;100337.75;;;1.36;100.00
58775;BME280;44545;47.480;19.024;2023-12-07T14:56:17;100339.28;;;1.53;100.00
58775;BME280;44545;47.480;19.024;2023-12-07T14:59:20;100350.03;;;1.49;100.00
58775;BME280;44545;47.480;19.024;2023-12-07T15:02:22;100354.16;;;1.28;100.00
58775;BME280;44545;47.480;19.024;2023-12-07T15:05:42;100349.56;;;1.34;100.00
58775;BME280;44545;47.480;19.024;2023-12-07T15:08:45;100360.88;;;1.36;100.00
58775;BME280;44545;47.480;19.024;2023-12-07T15:11:48;100362.91;;;1.30;100.00
58775;BME280;44545;47.480;19.024;2023-12-07T15:14:51;100362.19;;;1.41;100.00
58775;BME280;44545;47.480;19.024;2023-12-07T15:17:53;100369.97;;;1.51;100.00
58775;BME280;44545;47.480;19.024;2023-12-07T15:20:58;100364.56;;;1.48;100.00
58775;BME280;44545;47.480;19.024;2023-12-07T15:24:01;100379.13;;;1.39;100.00
58775;BME280;44545;47.480;19.024;2023-12-07T15:27:04;100376.56;;;1.39;100.00
58775;BME280;44545;47.480;19.024;2023-12-07T15:30:07;100374.00;;;1.20;100.00
58775;BME280;44545;47.480;19.024;2023-12-07T15:33:12;100389.44;;;1.01;100.00
58775;BME280;44545;47.480;19.024;2023-12-07T15:36:14;100387.47;;;1.18;100.00
58775;BME280;44545;47.480;19.024;2023-12-07T15:39:17;100387.22;;;1.15;100.00
58775;BME280;44545;47.480;19.024;2023-12-07T15:42:19;100393.75;;;1.30;100.00
58775;BME280;44545;47.480;19.024;2023-12-07T15:45:21;100392.06;;;1.12;100.00
58775;BME280;44545;47.480;19.024;2023-12-07T15:48:24;100393.78;;;1.21;100.00
58775;BME280;44545;47.480;19.024;2023-12-07T15:51:27;100391.00;;;1.28;100.00
58775;BME280;44545;47.480;19.024;2023-12-07T15:54:29;100402.25;;;1.39;100.00
58775;BME280;44545;47.480;19.024;2023-12-07T15:57:41;100403.78;;;1.18;100.00
58775;BME280;44545;47.480;19.024;2023-12-07T16:00:44;100408.16;;;1.38;100.00
58775;BME280;44545;47.480;19.024;2023-12-07T16:03:47;100409.78;;;1.27;100.00
58775;BME280;44545;47.480;19.024;2023-12-07T16:06:49;100412.00;;;1.33;100.00
58775;BME280;44545;47.480;19.024;2023-12-07T16:09:52;100412.41;;;1.38;100.00
58775;BME280;44545;47.480;19.024;2023-12-07T16:12:56;100418.66;;;1.31;100.00
58775;BME280;44545;47.480;19.024;2023-12-07T16:15:59;100412.88;;;1.15;100.00
58775;BME280;44545;47.480;19.024;2023-12-07T16:19:01;100426.63;;;1.34;100.00
58775;BME280;44545;47.480;19.024;2023-12-07T16:22:04;100424.97;;;1.54;100.00
58775;BME280;44545;47.480;19.024;2023-12-07T16:25:07;100426.56;;;1.62;100.00
58775;BME280;44545;47.480;19.024;2023-12-07T16:28:10;100427.06;;;1.58;100.00
